createdAt,value
2022-10-07T00:02:19.956Z,99.90
2022-10-07T00:04:46.798Z,99.90
2022-10-07T00:07:13.709Z,99.90
2022-10-07T00:09:40.552Z,99.90
2022-10-07T00:12:07.324Z,99.90
2022-10-07T00:14:34.212Z,99.90
2022-10-07T00:17:01.124Z,99.90
2022-10-07T00:19:27.954Z,99.90
2022-10-07T00:21:54.704Z,99.90
2022-10-07T00:24:21.472Z,99.90
2022-10-07T00:26:48.194Z,99.90
2022-10-07T00:29:14.931Z,99.90
2022-10-07T00:31:41.760Z,99.90
2022-10-07T00:34:10.927Z,99.90
2022-10-07T00:36:37.812Z,99.90
2022-10-07T00:39:11.610Z,99.90
2022-10-07T00:41:43.144Z,99.90
2022-10-07T00:44:31.410Z,99.90
2022-10-07T00:46:58.768Z,99.90
2022-10-07T00:49:25.798Z,99.90
2022-10-07T00:51:52.499Z,99.90
2022-10-07T00:54:20.026Z,99.90
2022-10-07T00:56:48.883Z,99.90
2022-10-07T00:59:16.532Z,99.90
2022-10-07T01:01:43.369Z,99.90
2022-10-07T01:04:11.054Z,99.90
2022-10-07T01:06:38.202Z,99.90
2022-10-07T01:09:06.193Z,99.90
2022-10-07T01:11:42.118Z,99.90
2022-10-07T01:14:15.008Z,99.90
2022-10-07T01:16:50.981Z,99.90
2022-10-07T01:19:26.237Z,99.90
2022-10-07T01:21:56.111Z,99.90
2022-10-07T01:24:41.591Z,99.90
2022-10-07T01:27:16.624Z,99.90
2022-10-07T01:29:46.106Z,99.90
2022-10-07T01:32:15.354Z,99.90
2022-10-07T01:34:42.924Z,99.90
2022-10-07T01:37:12.835Z,99.90
2022-10-07T01:39:45.516Z,99.90
2022-10-07T01:42:12.250Z,99.90
2022-10-07T01:44:39.989Z,99.90
2022-10-07T01:47:06.688Z,99.90
2022-10-07T01:49:33.531Z,99.90
2022-10-07T01:52:20.206Z,99.90
2022-10-07T01:55:09.981Z,99.90
2022-10-07T01:57:56.948Z,99.90
2022-10-07T02:00:26.844Z,99.90
2022-10-07T02:02:53.503Z,99.90
2022-10-07T02:05:20.973Z,99.90
2022-10-07T02:07:47.796Z,99.90
2022-10-07T02:10:36.177Z,99.90
2022-10-07T02:13:03.030Z,99.90
2022-10-07T02:15:39.580Z,99.90
2022-10-07T02:18:07.435Z,99.90
2022-10-07T02:20:36.284Z,99.90
2022-10-07T02:23:03.856Z,99.90
2022-10-07T02:25:34.760Z,99.90
2022-10-07T02:28:02.007Z,99.90
2022-10-07T02:30:29.047Z,99.90
2022-10-07T02:32:58.802Z,99.90
2022-10-07T02:35:25.543Z,99.90
2022-10-07T02:37:53.681Z,99.90
2022-10-07T02:40:21.786Z,99.90
2022-10-07T02:42:51.631Z,99.90
2022-10-07T02:45:26.473Z,99.90
2022-10-07T02:48:14.397Z,99.90
2022-10-07T02:50:44.288Z,99.90
2022-10-07T02:53:11.941Z,99.90
2022-10-07T02:55:38.670Z,99.90
2022-10-07T02:58:07.250Z,99.90
2022-10-07T03:00:38.367Z,99.90
2022-10-07T03:03:05.511Z,99.90
2022-10-07T03:05:48.542Z,99.90
2022-10-07T03:08:16.105Z,99.90
2022-10-07T03:10:43.349Z,99.90
2022-10-07T03:13:13.047Z,99.90
2022-10-07T03:15:43.388Z,99.90
2022-10-07T03:18:15.915Z,99.90
2022-10-07T03:20:42.606Z,99.90
2022-10-07T03:23:09.427Z,99.90
2022-10-07T03:25:36.094Z,99.90
2022-10-07T03:28:03.148Z,99.90
2022-10-07T03:30:29.852Z,99.90
2022-10-07T03:32:56.585Z,99.90
2022-10-07T03:35:23.338Z,99.90
2022-10-07T03:37:50.122Z,99.90
2022-10-07T03:40:18.159Z,99.90
2022-10-07T03:42:44.888Z,99.90
2022-10-07T03:45:11.666Z,99.90
2022-10-07T03:47:38.431Z,99.90
2022-10-07T03:50:06.019Z,99.90
2022-10-07T03:52:32.680Z,99.90
2022-10-07T03:54:59.390Z,99.90
2022-10-07T03:57:26.419Z,99.90
2022-10-07T03:59:53.496Z,99.90
2022-10-07T04:02:20.833Z,99.90
2022-10-07T04:04:47.739Z,99.90
2022-10-07T04:07:14.611Z,99.90
2022-10-07T04:09:41.389Z,99.90
2022-10-07T04:12:08.159Z,99.90
2022-10-07T04:14:34.888Z,99.90
2022-10-07T04:17:01.575Z,99.90
2022-10-07T04:19:28.341Z,99.90
2022-10-07T04:21:55.145Z,99.90
2022-10-07T04:24:21.820Z,99.90
2022-10-07T04:26:50.055Z,99.90
2022-10-07T04:29:16.830Z,99.90
2022-10-07T04:31:43.688Z,99.90
2022-10-07T04:34:10.510Z,99.90
2022-10-07T04:36:40.726Z,99.90
2022-10-07T04:39:10.273Z,99.90
2022-10-07T04:41:41.792Z,99.90
2022-10-07T04:44:13.740Z,99.90
2022-10-07T04:46:48.727Z,99.90
2022-10-07T04:49:17.456Z,99.90
2022-10-07T04:51:44.138Z,99.90
2022-10-07T04:54:10.989Z,99.90
2022-10-07T04:56:44.524Z,99.90
2022-10-07T04:59:13.551Z,99.90
2022-10-07T05:01:41.122Z,99.90
2022-10-07T05:04:08.802Z,99.90
2022-10-07T05:06:35.487Z,99.90
2022-10-07T05:09:02.146Z,99.90
2022-10-07T05:11:32.676Z,99.90
2022-10-07T05:14:06.509Z,99.90
2022-10-07T05:16:34.651Z,99.90
2022-10-07T05:19:02.461Z,99.90
2022-10-07T05:21:29.132Z,99.90
2022-10-07T05:23:56.498Z,99.90
2022-10-07T05:26:29.714Z,99.90
2022-10-07T05:29:01.272Z,99.90
2022-10-07T05:31:35.217Z,99.90
2022-10-07T05:34:03.742Z,99.90
2022-10-07T05:36:30.831Z,99.90
2022-10-07T05:38:59.574Z,99.90
2022-10-07T05:41:45.450Z,99.90
2022-10-07T05:44:13.363Z,99.90
2022-10-07T05:46:40.392Z,99.90
2022-10-07T05:49:07.546Z,99.90
2022-10-07T05:51:35.900Z,99.90
2022-10-07T05:54:02.944Z,99.90
2022-10-07T05:56:35.086Z,99.90
2022-10-07T05:59:01.823Z,99.90
2022-10-07T06:01:29.717Z,99.90
2022-10-07T06:03:59.764Z,99.90
2022-10-07T06:06:29.617Z,99.90
2022-10-07T06:08:57.977Z,99.90
2022-10-07T06:11:24.687Z,99.90
2022-10-07T06:13:53.173Z,99.90
2022-10-07T06:16:20.479Z,99.90
2022-10-07T06:18:48.720Z,99.90
2022-10-07T06:21:15.398Z,99.90
2022-10-07T06:23:42.123Z,99.90
2022-10-07T06:26:09.838Z,99.90
2022-10-07T06:28:38.680Z,99.90
2022-10-07T06:31:06.602Z,99.90
2022-10-07T06:33:35.687Z,99.90
2022-10-07T06:36:04.692Z,99.90
2022-10-07T06:38:31.908Z,99.90
2022-10-07T06:41:00.088Z,99.90
2022-10-07T06:43:29.185Z,99.90
2022-10-07T06:46:05.439Z,99.90
2022-10-07T06:48:33.875Z,99.90
2022-10-07T06:51:01.196Z,99.90
2022-10-07T06:53:30.518Z,99.90
2022-10-07T06:56:02.990Z,99.90
2022-10-07T06:58:36.139Z,99.90
2022-10-07T07:01:05.150Z,99.90
2022-10-07T07:03:32.559Z,99.90
2022-10-07T07:06:01.723Z,99.90
2022-10-07T07:08:32.719Z,99.90
2022-10-07T07:11:05.796Z,99.90
2022-10-07T07:13:32.644Z,99.90
2022-10-07T07:15:59.995Z,99.90
2022-10-07T07:18:29.984Z,99.90
2022-10-07T07:21:01.709Z,99.90
2022-10-07T07:23:28.515Z,99.90
2022-10-07T07:28:22.868Z,99.90
2022-10-07T07:30:50.070Z,99.90
2022-10-07T07:33:16.807Z,99.90
2022-10-07T07:35:43.644Z,99.90
2022-10-07T07:38:10.857Z,99.90
2022-10-07T07:40:38.600Z,99.90
2022-10-07T07:43:06.023Z,99.90
2022-10-07T07:45:35.255Z,99.90
2022-10-07T07:48:02.432Z,99.90
2022-10-07T07:50:30.228Z,99.90
2022-10-07T07:52:57.776Z,99.90
2022-10-07T07:55:25.195Z,99.90
2022-10-07T07:57:51.883Z,99.90
2022-10-07T08:00:18.655Z,99.90
2022-10-07T08:02:56.418Z,99.90
2022-10-07T08:05:24.375Z,99.90
2022-10-07T08:07:54.222Z,99.90
2022-10-07T08:10:23.184Z,99.90
2022-10-07T08:12:50.062Z,99.90
2022-10-07T08:15:16.934Z,99.90
2022-10-07T08:17:44.147Z,99.90
2022-10-07T08:20:11.124Z,99.90
2022-10-07T08:22:38.765Z,99.90
2022-10-07T08:25:05.858Z,99.90
2022-10-07T08:27:33.455Z,99.90
2022-10-07T08:30:00.206Z,99.90
2022-10-07T08:32:26.990Z,99.90
2022-10-07T08:34:53.646Z,99.90
2022-10-07T08:37:20.431Z,99.90
2022-10-07T08:39:47.623Z,99.90
2022-10-07T08:42:26.548Z,99.90
2022-10-07T08:44:53.277Z,99.90
2022-10-07T08:47:28.681Z,99.90
2022-10-07T08:50:03.635Z,99.90
2022-10-07T08:52:30.263Z,99.90
2022-10-07T08:54:56.909Z,99.90
2022-10-07T08:57:43.948Z,99.90
2022-10-07T09:00:12.135Z,99.90
2022-10-07T09:02:45.744Z,99.90
2022-10-07T09:05:15.550Z,99.90
2022-10-07T09:07:44.363Z,99.90
2022-10-07T09:10:26.554Z,99.90
2022-10-07T09:13:02.423Z,99.90
2022-10-07T09:15:34.851Z,99.90
2022-10-07T09:18:03.629Z,99.90
2022-10-07T09:20:33.247Z,99.90
2022-10-07T09:23:00.414Z,99.90
2022-10-07T09:25:28.359Z,99.90
2022-10-07T09:27:55.108Z,99.60
2022-10-07T09:30:22.506Z,99.90
2022-10-07T09:32:50.700Z,99.90
2022-10-07T09:35:22.627Z,99.90
2022-10-07T09:37:58.445Z,98.50
2022-10-07T09:40:27.950Z,98.90
2022-10-07T09:42:54.856Z,99.90
2022-10-07T09:45:25.454Z,98.80
2022-10-07T09:47:53.267Z,97.90
2022-10-07T09:50:34.127Z,97.60
2022-10-07T09:53:01.389Z,98.60
2022-10-07T09:55:33.001Z,99.50
2022-10-07T09:58:00.877Z,97.60
2022-10-07T10:00:27.692Z,97.40
2022-10-07T10:03:01.209Z,97.50
2022-10-07T10:05:33.209Z,97.20
2022-10-07T10:08:01.532Z,96.70
2022-10-07T10:10:32.602Z,96.30
2022-10-07T10:13:00.390Z,97.70
2022-10-07T10:15:38.536Z,97.60
2022-10-07T10:18:24.589Z,96.20
2022-10-07T10:20:51.381Z,95.50
2022-10-07T10:23:38.390Z,96.00
2022-10-07T10:26:33.670Z,95.30
2022-10-07T10:29:13.048Z,96.10
2022-10-07T10:31:45.901Z,95.80
2022-10-07T10:34:28.048Z,95.60
2022-10-07T10:37:01.528Z,96.30
2022-10-07T10:39:28.211Z,94.90
2022-10-07T10:42:02.150Z,95.00
2022-10-07T10:44:31.540Z,96.30
2022-10-07T10:47:01.073Z,95.10
2022-10-07T10:49:37.607Z,95.70
2022-10-07T10:52:13.645Z,96.00
2022-10-07T10:54:58.608Z,95.50
2022-10-07T10:57:37.620Z,94.90
2022-10-07T11:00:16.180Z,94.60
2022-10-07T11:02:43.329Z,95.80
2022-10-07T11:05:17.816Z,95.50
2022-10-07T11:07:50.588Z,95.80
2022-10-07T11:10:25.634Z,94.20
2022-10-07T11:12:54.876Z,94.90
2022-10-07T11:15:24.473Z,95.50
2022-10-07T11:17:56.064Z,95.70
2022-10-07T11:20:44.835Z,95.50
2022-10-07T11:23:17.912Z,93.40
2022-10-07T11:25:52.675Z,95.40
2022-10-07T11:28:21.154Z,94.40
2022-10-07T11:30:53.258Z,94.80
2022-10-07T11:33:38.842Z,94.90
2022-10-07T11:36:20.495Z,94.60
2022-10-07T11:38:48.375Z,93.90
2022-10-07T11:41:22.845Z,93.70
2022-10-07T11:43:51.539Z,94.60
2022-10-07T11:46:21.658Z,94.50
2022-10-07T11:49:03.712Z,94.20
2022-10-07T11:51:32.921Z,94.50
2022-10-07T11:54:02.178Z,92.90
2022-10-07T11:56:32.440Z,93.60
2022-10-07T11:59:02.952Z,93.30
2022-10-07T12:01:40.482Z,94.10
2022-10-07T12:04:25.658Z,93.80
2022-10-07T12:07:11.096Z,93.40
2022-10-07T12:09:54.250Z,92.70
2022-10-07T12:12:24.036Z,93.40
2022-10-07T12:14:58.970Z,93.80
2022-10-07T12:17:26.043Z,92.80
2022-10-07T12:20:12.700Z,93.80
2022-10-07T12:22:39.343Z,93.30
2022-10-07T12:25:41.634Z,93.10
2022-10-07T12:28:15.296Z,93.10
2022-10-07T12:30:49.540Z,92.50
2022-10-07T12:33:25.154Z,91.70
2022-10-07T12:35:54.611Z,92.20
2022-10-07T12:38:22.974Z,92.60
2022-10-07T12:41:25.352Z,92.00
2022-10-07T12:44:05.366Z,92.00
2022-10-07T12:46:42.373Z,92.20
2022-10-07T12:49:20.911Z,90.60
2022-10-07T12:51:47.732Z,91.10
2022-10-07T12:54:19.418Z,91.60
2022-10-07T12:56:47.838Z,90.70
2022-10-07T12:59:14.464Z,91.00
2022-10-07T13:02:00.108Z,90.80
2022-10-07T13:04:49.972Z,92.10
2022-10-07T13:07:22.688Z,91.80
2022-10-07T13:10:01.786Z,91.60
2022-10-07T13:12:37.948Z,92.00
2022-10-07T13:15:12.249Z,92.30
2022-10-07T13:17:42.694Z,91.20
2022-10-07T13:20:16.557Z,91.50
2022-10-07T13:22:47.263Z,91.20
2022-10-07T13:25:14.937Z,92.00
2022-10-07T13:27:52.757Z,91.70
2022-10-07T13:30:38.323Z,91.00
2022-10-07T13:33:23.432Z,91.90
2022-10-07T13:35:50.703Z,91.40
2022-10-07T13:38:24.416Z,91.90
2022-10-07T13:41:01.646Z,91.70
2022-10-07T13:43:29.020Z,91.50
2022-10-07T13:45:56.897Z,92.10
2022-10-07T13:48:25.544Z,91.60
2022-10-07T13:50:54.128Z,91.80
2022-10-07T13:53:22.553Z,90.50
2022-10-07T13:55:49.217Z,90.50
2022-10-07T13:58:16.259Z,90.10
2022-10-07T14:00:46.006Z,88.20
2022-10-07T14:03:16.574Z,88.50
2022-10-07T14:05:52.958Z,89.00
2022-10-07T14:08:21.928Z,90.40
2022-10-07T14:10:50.163Z,90.60
2022-10-07T14:13:16.931Z,89.30
2022-10-07T14:15:45.803Z,90.80
2022-10-07T14:18:12.556Z,91.30
2022-10-07T14:20:40.587Z,91.20
2022-10-07T14:23:16.980Z,90.00
2022-10-07T14:25:54.168Z,90.20
2022-10-07T14:28:23.779Z,90.10
2022-10-07T14:31:08.844Z,89.90
2022-10-07T14:33:41.348Z,89.90
2022-10-07T14:36:09.011Z,88.90
2022-10-07T14:38:35.715Z,89.40
2022-10-07T14:41:02.483Z,89.00
2022-10-07T14:43:30.946Z,89.10
2022-10-07T14:45:57.736Z,87.60
2022-10-07T14:48:24.423Z,87.30
2022-10-07T14:50:51.148Z,87.70
2022-10-07T14:53:17.819Z,88.90
2022-10-07T14:55:44.490Z,89.40
2022-10-07T14:58:11.226Z,87.60
2022-10-07T15:00:39.848Z,88.50
2022-10-07T15:03:06.643Z,88.70
2022-10-07T15:05:33.344Z,88.00
2022-10-07T15:08:00.593Z,89.30
2022-10-07T15:10:27.242Z,88.30
2022-10-07T15:12:54.679Z,89.80
2022-10-07T15:15:21.338Z,89.40
2022-10-07T15:17:48.031Z,89.90
2022-10-07T15:20:15.283Z,90.00
2022-10-07T15:22:42.174Z,90.50
2022-10-07T15:25:09.553Z,90.50
2022-10-07T15:27:36.314Z,90.80
2022-10-07T15:30:03.051Z,91.20
2022-10-07T15:32:29.815Z,92.00
2022-10-07T15:34:56.536Z,91.90
2022-10-07T15:37:23.671Z,92.40
2022-10-07T15:39:50.632Z,93.80
2022-10-07T15:42:17.602Z,95.80
2022-10-07T15:44:44.287Z,97.20
2022-10-07T15:47:11.128Z,98.00
2022-10-07T15:49:37.780Z,98.40
2022-10-07T15:52:04.452Z,99.20
2022-10-07T15:54:31.089Z,99.90
2022-10-07T15:56:57.979Z,99.90
2022-10-07T15:59:24.755Z,99.90
2022-10-07T16:01:51.479Z,99.90
2022-10-07T16:04:18.701Z,99.90
2022-10-07T16:06:45.449Z,99.90
2022-10-07T16:09:12.154Z,99.90
2022-10-07T16:11:38.860Z,99.90
2022-10-07T16:14:05.520Z,99.90
2022-10-07T16:16:32.695Z,99.90
2022-10-07T16:18:59.557Z,99.90
2022-10-07T16:21:27.351Z,99.90
2022-10-07T16:23:58.199Z,99.90
2022-10-07T16:26:26.418Z,99.90
2022-10-07T16:28:53.573Z,99.90
2022-10-07T16:31:20.222Z,99.90
2022-10-07T16:33:50.397Z,99.90
2022-10-07T16:36:17.066Z,99.90
2022-10-07T16:38:43.857Z,99.90
2022-10-07T16:41:10.578Z,99.90
2022-10-07T16:43:37.279Z,99.90
2022-10-07T16:46:05.214Z,99.90
2022-10-07T16:48:37.220Z,99.90
2022-10-07T16:51:04.246Z,99.90
2022-10-07T16:53:31.025Z,99.90
2022-10-07T16:56:01.008Z,99.90
2022-10-07T16:58:27.706Z,99.90
2022-10-07T17:00:59.920Z,99.90
2022-10-07T17:03:26.635Z,99.90
2022-10-07T17:05:56.934Z,99.90
2022-10-07T17:08:23.886Z,99.90
2022-10-07T17:10:50.583Z,99.90
2022-10-07T17:13:17.670Z,99.90
2022-10-07T17:15:47.070Z,99.90
2022-10-07T17:18:17.167Z,99.90
2022-10-07T17:20:53.214Z,99.90
2022-10-07T17:23:19.875Z,99.90
2022-10-07T17:25:46.942Z,99.90
2022-10-07T17:28:14.075Z,99.90
2022-10-07T17:30:41.148Z,99.90
2022-10-07T17:33:07.808Z,99.90
2022-10-07T17:35:34.450Z,99.90
2022-10-07T17:38:02.025Z,99.90
2022-10-07T17:40:29.427Z,99.90
2022-10-07T17:42:56.102Z,99.90
2022-10-07T17:45:22.747Z,99.90
2022-10-07T17:47:49.435Z,99.90
2022-10-07T17:50:16.111Z,99.90
2022-10-07T17:52:42.751Z,99.90
2022-10-07T17:55:09.579Z,99.90
2022-10-07T17:57:36.203Z,99.90
2022-10-07T18:00:03.238Z,99.90
2022-10-07T18:02:38.264Z,99.90
2022-10-07T18:05:05.197Z,99.90
2022-10-07T18:07:31.958Z,99.90
2022-10-07T18:09:58.938Z,99.90
2022-10-07T18:12:25.949Z,99.90
2022-10-07T18:14:53.988Z,99.90
2022-10-07T18:17:21.263Z,99.90
2022-10-07T18:19:48.004Z,99.90
2022-10-07T18:22:14.780Z,99.90
2022-10-07T18:24:41.447Z,99.90
2022-10-07T18:27:08.142Z,99.90
2022-10-07T18:29:35.423Z,99.90
2022-10-07T18:32:02.173Z,99.90
2022-10-07T18:34:28.916Z,99.90
2022-10-07T18:36:57.274Z,99.90
2022-10-07T18:39:24.842Z,99.90
2022-10-07T18:41:51.633Z,99.90
2022-10-07T18:44:18.385Z,99.90
2022-10-07T18:46:45.160Z,99.90
2022-10-07T18:49:12.353Z,99.90
2022-10-07T18:51:40.917Z,99.90
2022-10-07T18:54:08.114Z,99.90
2022-10-07T18:56:39.998Z,99.90
2022-10-07T18:59:10.549Z,99.90
2022-10-07T19:01:39.160Z,99.90
2022-10-07T19:04:09.075Z,99.90
2022-10-07T19:06:38.035Z,99.90
2022-10-07T19:09:07.044Z,99.90
2022-10-07T19:11:34.514Z,99.90
2022-10-07T19:14:01.987Z,99.90
2022-10-07T19:16:30.769Z,99.90
2022-10-07T19:18:58.898Z,99.90
2022-10-07T19:21:29.013Z,99.90
2022-10-07T19:23:56.580Z,99.90
2022-10-07T19:26:24.464Z,99.90
2022-10-07T19:28:52.239Z,99.90
2022-10-07T19:31:19.162Z,99.90
2022-10-07T19:33:46.805Z,99.90
2022-10-07T19:36:15.130Z,99.90
2022-10-07T19:38:42.729Z,99.90
2022-10-07T19:41:17.232Z,99.90
2022-10-07T19:43:44.255Z,99.90
2022-10-07T20:42:55.596Z,99.90
2022-10-07T20:45:22.360Z,99.90
2022-10-07T20:47:49.077Z,99.90
2022-10-07T20:50:16.337Z,99.90
2022-10-07T20:52:43.331Z,99.90
2022-10-07T20:55:10.224Z,99.90
2022-10-07T20:57:36.958Z,99.90
2022-10-07T21:00:05.213Z,99.90
2022-10-07T21:02:32.619Z,99.90
2022-10-07T21:04:59.744Z,99.90
2022-10-07T21:07:26.762Z,99.90
2022-10-07T21:09:53.837Z,99.90
2022-10-07T21:12:20.595Z,99.90
2022-10-07T21:14:47.495Z,99.90
2022-10-07T21:17:14.237Z,99.90
2022-10-07T21:19:41.082Z,99.90
2022-10-07T21:22:07.826Z,99.90
2022-10-07T21:24:35.126Z,99.90
2022-10-07T21:27:02.944Z,99.90
2022-10-07T21:29:29.668Z,99.90
2022-10-07T21:31:56.557Z,99.90
2022-10-07T21:34:23.380Z,99.90
2022-10-07T21:36:53.724Z,99.90
2022-10-07T21:39:20.843Z,99.90
2022-10-07T21:41:47.540Z,99.90
2022-10-07T21:44:14.297Z,99.90
2022-10-07T21:46:41.284Z,99.90
2022-10-07T21:49:08.304Z,99.90
2022-10-07T21:51:35.368Z,99.90
2022-10-07T21:54:02.235Z,99.90
2022-10-07T21:56:29.796Z,99.90
2022-10-07T21:58:57.378Z,99.90
2022-10-07T22:01:25.117Z,99.90
2022-10-07T22:03:56.035Z,99.90
2022-10-07T22:06:23.432Z,99.90
2022-10-07T22:08:54.229Z,99.90
2022-10-07T22:11:22.912Z,99.90
2022-10-07T22:13:50.471Z,99.90
2022-10-07T22:16:18.311Z,99.90
2022-10-07T22:18:46.708Z,99.90
2022-10-07T22:21:18.049Z,99.90
2022-10-07T22:23:45.252Z,99.90
2022-10-07T22:26:12.563Z,99.90
2022-10-07T22:28:40.289Z,99.90
2022-10-07T22:31:08.635Z,99.90
2022-10-07T22:33:37.063Z,99.90
2022-10-07T22:36:08.754Z,99.90
2022-10-07T22:38:35.758Z,99.90
2022-10-07T22:41:06.076Z,99.90
2022-10-07T22:43:35.404Z,99.90
2022-10-07T22:46:02.536Z,99.90
2022-10-07T22:48:29.306Z,99.90
2022-10-07T22:51:01.102Z,99.90
2022-10-07T22:53:27.887Z,99.90
2022-10-07T22:55:54.805Z,99.90
2022-10-07T22:58:21.566Z,99.90
2022-10-07T23:00:48.242Z,99.90
2022-10-07T23:03:16.025Z,99.90
2022-10-07T23:05:42.914Z,99.90
2022-10-07T23:08:09.675Z,99.90
2022-10-07T23:10:36.530Z,99.90
2022-10-07T23:13:03.410Z,99.90
2022-10-07T23:15:30.155Z,99.90
2022-10-07T23:17:57.007Z,99.90
2022-10-07T23:20:23.852Z,99.90
2022-10-07T23:22:50.688Z,99.90
2022-10-07T23:25:17.469Z,99.90
2022-10-07T23:27:44.226Z,99.90
2022-10-07T23:30:11.093Z,99.90
2022-10-07T23:32:37.859Z,99.90
2022-10-07T23:35:04.741Z,99.90
2022-10-07T23:37:31.423Z,99.90
2022-10-07T23:39:58.153Z,99.90
2022-10-07T23:42:24.876Z,99.90
2022-10-07T23:44:51.615Z,99.90
2022-10-07T23:47:18.298Z,99.90
2022-10-07T23:49:45.103Z,99.90
2022-10-07T23:52:11.858Z,99.90
2022-10-07T23:54:38.544Z,99.90
2022-10-07T23:57:05.317Z,99.90
2022-10-07T23:59:32.084Z,99.90
